Time;durP1;ratioP1;P1;durP2;ratioP2;P2;SDS_P1;SDS_P2;PMS_P1;PMS_P2;Temp;Humidity;BMP_temperature;BMP_pressure;BME280_temperature;BME280_humidity;BME280_pressure;Samples;Min_cycle;Max_cycle;Signal;HPM_P1;HPM_P2
2021/12/12 00:01:16;;;;;;;15.13;5.32;;;;;;;1.13;67.71;100686.94;10367163;28;20053;-68
2021/12/12 00:06:34;;;;;;;12.63;5.53;;;;;;;1.12;67.87;100689.53;10385029;28;20413;-68
2021/12/12 00:11:36;;;;;;;12.80;5.50;;;;;;;1.10;67.68;100699.84;10384489;28;20449;-68
2021/12/12 00:16:39;;;;;;;16.63;5.97;;;;;;;1.06;67.79;100690.44;10384305;28;20433;-68
2021/12/12 00:21:45;;;;;;;12.50;6.20;;;;;;;1.07;67.79;100683.56;10383961;28;20049;-68
2021/12/12 00:26:49;;;;;;;14.32;6.93;;;;;;;1.08;67.64;100670.66;10384406;28;20056;-68
2021/12/12 00:31:57;;;;;;;15.40;6.22;;;;;;;1.06;67.82;100674.97;10383476;28;20479;-68
2021/12/12 00:36:58;;;;;;;18.08;6.70;;;;;;;1.07;67.61;100671.56;10383407;28;20049;-68
2021/12/12 00:42:11;;;;;;;18.00;6.63;;;;;;;1.08;67.69;100683.53;10383584;28;20062;-68
2021/12/12 00:47:14;;;;;;;13.55;6.40;;;;;;;1.13;67.55;100691.25;10383243;28;20045;-68
2021/12/12 00:52:35;;;;;;;13.52;6.05;;;;;;;1.20;67.58;100692.88;10383761;28;20045;-68
2021/12/12 00:57:37;;;;;;;16.25;6.95;;;;;;;1.16;67.21;100692.06;10388381;28;20529;-69
2021/12/12 01:02:39;;;;;;;16.73;7.47;;;;;;;1.06;67.35;100694.72;10390796;28;20053;-69
2021/12/12 01:07:44;;;;;;;20.25;6.70;;;;;;;1.09;67.61;100710.16;10389083;28;20686;-69
2021/12/12 01:12:47;;;;;;;18.00;7.35;;;;;;;1.03;67.46;100694.78;10390499;28;20067;-68
2021/12/12 01:17:52;;;;;;;20.10;7.25;;;;;;;1.01;67.63;100715.41;10389483;28;20425;-69
2021/12/12 01:23:03;;;;;;;20.20;7.88;;;;;;;1.06;67.61;100720.47;10389989;28;20045;-68
2021/12/12 01:28:05;;;;;;;15.52;7.03;;;;;;;1.07;67.32;100711.91;10389776;28;20600;-69
2021/12/12 01:33:09;;;;;;;14.23;7.05;;;;;;;0.96;67.30;100709.41;10389169;28;20053;-68
2021/12/12 01:43:42;;;;;;;15.30;6.68;;;;;;;0.88;67.44;100689.75;10389934;28;20060;-68
2021/12/12 01:48:55;;;;;;;17.02;7.40;;;;;;;0.85;67.57;100685.47;10389143;28;20056;-69
2021/12/12 01:54:02;;;;;;;15.75;6.65;;;;;;;0.88;67.60;100689.75;10389501;28;20049;-68
2021/12/12 01:59:10;;;;;;;18.45;7.10;;;;;;;0.92;67.34;100687.13;10386739;28;20049;-69
2021/12/12 02:04:17;;;;;;;17.80;7.18;;;;;;;0.82;67.57;100685.50;10386188;28;20096;-68
2021/12/12 02:09:20;;;;;;;18.00;7.28;;;;;;;0.73;67.81;100685.56;10387934;28;20053;-69
2021/12/12 02:14:23;;;;;;;14.18;6.68;;;;;;;0.75;67.98;100683.00;10386244;28;20129;-68
2021/12/12 02:19:36;;;;;;;16.35;7.90;;;;;;;0.77;67.55;100682.09;10388210;28;20484;-69
2021/12/12 02:35:36;;;;;;;18.67;7.88;;;;;;;0.68;67.37;100683.91;10387662;28;20289;-68
2021/12/12 02:40:43;;;;;;;22.65;10.15;;;;;;;0.53;67.60;100679.72;10386505;28;20060;-68
2021/12/12 02:45:46;;;;;;;20.88;8.88;;;;;;;0.37;67.82;100683.25;10386357;28;20053;-69
2021/12/12 02:50:50;;;;;;;17.48;7.90;;;;;;;0.38;68.13;100690.13;10384232;28;20059;-69
2021/12/12 02:56:00;;;;;;;22.23;9.27;;;;;;;0.40;68.08;100691.81;10386470;28;20050;-69
2021/12/12 03:01:22;;;;;;;22.42;9.38;;;;;;;0.32;67.90;100687.59;10386949;28;20147;-69
2021/12/12 03:06:29;;;;;;;13.18;7.57;;;;;;;0.30;68.33;100684.19;10393858;28;20085;-69
2021/12/12 03:11:31;;;;;;;17.77;7.47;;;;;;;0.44;68.35;100692.66;10390371;28;20045;-69
2021/12/12 03:16:34;;;;;;;16.05;6.82;;;;;;;0.57;68.05;100686.56;10391467;28;20053;-69
2021/12/12 03:21:42;;;;;;;14.63;7.43;;;;;;;0.63;67.89;100683.09;10391492;28;20134;-69
2021/12/12 03:26:44;;;;;;;18.35;8.07;;;;;;;0.66;67.74;100676.19;10392678;28;20592;-69
2021/12/12 03:31:53;;;;;;;20.20;8.55;;;;;;;0.65;67.69;100677.06;10392055;28;20324;-69
2021/12/12 03:36:56;;;;;;;19.40;8.07;;;;;;;0.77;67.65;100678.69;10389999;28;20378;-69
2021/12/12 03:42:04;;;;;;;23.55;8.82;;;;;;;0.79;67.32;100688.09;10390903;28;20057;-69
2021/12/12 03:47:32;;;;;;;24.50;8.35;;;;;;;0.76;67.57;100685.56;10391733;28;20167;-68
2021/12/12 03:52:34;;;;;;;22.88;9.30;;;;;;;0.78;67.43;100688.97;10391256;28;20509;-69
2021/12/12 03:57:36;;;;;;;26.05;8.93;;;;;;;0.75;67.44;100694.13;10392510;28;20041;-69
2021/12/12 04:02:38;;;;;;;22.80;8.63;;;;;;;0.80;67.21;100702.69;10389464;28;20497;-69
2021/12/12 04:07:40;;;;;;;20.83;8.90;;;;;;;0.81;67.31;100699.22;10386136;28;20053;-69
2021/12/12 04:12:42;;;;;;;14.95;7.50;;;;;;;0.88;67.33;100702.63;10384022;28;20221;-69
2021/12/12 04:17:45;;;;;;;17.15;8.23;;;;;;;0.92;67.44;100712.03;10384240;28;20062;-68
2021/12/12 04:22:47;;;;;;;16.38;7.50;;;;;;;1.02;67.18;100718.81;10382463;28;20377;-68
2021/12/12 04:27:50;;;;;;;19.27;7.75;;;;;;;1.10;67.21;100714.44;10384453;28;20520;-69
2021/12/12 04:32:52;;;;;;;16.13;7.50;;;;;;;1.11;66.93;100713.59;10389873;28;20330;-68
2021/12/12 04:37:56;;;;;;;19.48;7.55;;;;;;;1.02;67.17;100717.09;10391572;28;20236;-69
2021/12/12 04:42:59;;;;;;;13.48;7.80;;;;;;;0.81;67.23;100716.44;10391889;28;20144;-68
2021/12/12 04:53:45;;;;;;;15.00;6.90;;;;;;;0.73;67.95;100726.75;10391918;28;20049;-68
2021/12/12 04:58:58;;;;;;;15.10;7.15;;;;;;;0.84;67.87;100726.69;10391621;28;20049;-69
2021/12/12 05:04:24;;;;;;;13.63;7.22;;;;;;;0.98;67.69;100724.84;10389292;28;20056;-68
2021/12/12 05:09:31;;;;;;;12.43;6.75;;;;;;;1.11;67.45;100722.19;10391170;28;20052;-68
2021/12/12 05:14:37;;;;;;;17.73;7.05;;;;;;;1.16;67.11;100722.97;10391231;28;20060;-68
2021/12/12 05:19:45;;;;;;;14.68;7.30;;;;;;;1.20;67.28;100729.81;10390474;28;20057;-68
2021/12/12 05:24:50;;;;;;;16.75;7.43;;;;;;;1.33;67.19;100727.97;10389976;28;20605;-69
2021/12/12 05:29:59;;;;;;;18.52;7.15;;;;;;;1.32;66.93;100734.84;10390291;28;20502;-68
2021/12/12 05:35:02;;;;;;;11.00;7.25;;;;;;;1.38;67.01;100729.63;10390252;28;20421;-68
2021/12/12 05:40:08;;;;;;;17.67;7.60;;;;;;;1.35;66.78;100721.94;10390413;28;20053;-68
2021/12/12 05:45:10;;;;;;;19.38;8.00;;;;;;;1.32;67.03;100723.66;10389281;28;20065;-68
2021/12/12 05:50:15;;;;;;;19.70;7.90;;;;;;;1.25;67.40;100732.34;10389659;28;20136;-68
2021/12/12 05:55:16;;;;;;;20.88;7.70;;;;;;;1.18;67.55;100731.53;10387430;28;20045;-69
2021/12/12 06:00:18;;;;;;;16.65;6.55;;;;;;;1.18;67.31;100730.69;10388771;28;20060;-68
2021/12/12 06:05:21;;;;;;;15.52;7.32;;;;;;;1.24;67.40;100720.31;10389125;28;20053;-68
2021/12/12 06:10:23;;;;;;;15.65;7.43;;;;;;;1.30;67.45;100731.41;10388152;28;20056;-68
2021/12/12 06:15:28;;;;;;;16.77;7.05;;;;;;;1.40;67.09;100728.78;10388260;28;20068;-68
2021/12/12 06:20:31;;;;;;;18.05;8.05;;;;;;;1.48;67.19;100734.69;10388419;28;20595;-68
2021/12/12 06:25:33;;;;;;;18.77;7.97;;;;;;;1.55;67.09;100731.19;10387872;28;20790;-68
2021/12/12 06:30:35;;;;;;;15.88;7.95;;;;;;;1.57;67.06;100739.75;10387662;28;20581;-68
2021/12/12 06:35:37;;;;;;;14.05;7.38;;;;;;;1.57;67.23;100729.44;10385387;28;20053;-68
2021/12/12 06:40:40;;;;;;;14.73;7.75;;;;;;;1.60;66.75;100732.00;10387865;28;20068;-69
2021/12/12 06:45:42;;;;;;;16.25;7.72;;;;;;;1.67;66.65;100741.34;10387737;28;20050;-69
2021/12/12 06:50:47;;;;;;;20.80;7.80;;;;;;;1.69;66.74;100742.19;10387064;28;20136;-69
2021/12/12 06:55:49;;;;;;;18.60;9.38;;;;;;;1.77;66.79;100735.22;10386817;28;20055;-69
2021/12/12 07:01:00;;;;;;;18.52;10.52;;;;;;;1.85;66.84;100733.41;10386722;28;20049;-69
2021/12/12 07:06:02;;;;;;;21.10;11.30;;;;;;;1.85;66.60;100747.16;10386418;28;20128;-69
2021/12/12 07:11:05;;;;;;;22.33;10.95;;;;;;;1.88;66.36;100744.56;10385557;28;20041;-69
2021/12/12 07:16:08;;;;;;;21.60;10.00;;;;;;;1.74;66.62;100748.16;10385385;28;20436;-69
2021/12/12 07:21:12;;;;;;;16.92;9.48;;;;;;;1.85;66.79;100746.31;10384156;28;20080;-69
2021/12/12 07:26:15;;;;;;;17.13;9.27;;;;;;;1.79;66.49;100762.72;10385702;28;20084;-69
2021/12/12 07:31:23;;;;;;;17.00;9.25;;;;;;;1.86;66.64;100759.22;10385289;28;20077;-68
2021/12/12 07:36:30;;;;;;;22.10;9.50;;;;;;;1.96;66.40;100767.69;10385835;28;20703;-68
2021/12/12 07:41:32;;;;;;;18.27;9.68;;;;;;;1.99;66.55;100757.34;10385523;28;20056;-69
2021/12/12 07:46:35;;;;;;;17.63;10.73;;;;;;;2.05;66.69;100762.44;10386009;28;20051;-69
2021/12/12 07:51:40;;;;;;;21.17;11.38;;;;;;;2.05;66.36;100763.25;10384780;28;20052;-69
2021/12/12 07:56:45;;;;;;;20.35;10.20;;;;;;;2.09;66.64;100757.19;10384716;28;20042;-68
2021/12/12 08:01:49;;;;;;;21.60;11.27;;;;;;;2.08;66.59;100759.78;10384447;28;20140;-68
2021/12/12 08:06:52;;;;;;;21.55;12.40;;;;;;;1.96;66.89;100765.97;10387598;28;20053;-68
2021/12/12 08:11:54;;;;;;;23.38;12.07;;;;;;;1.90;67.07;100760.00;10392891;28;20045;-68
2021/12/12 08:16:57;;;;;;;21.88;12.07;;;;;;;1.99;67.39;100749.59;10392240;28;20076;-68
2021/12/12 08:22:03;;;;;;;24.80;14.15;;;;;;;2.23;66.94;100755.28;10392980;28;20063;-69
2021/12/12 08:27:10;;;;;;;25.08;13.27;;;;;;;2.08;67.25;100767.53;10390794;28;20050;-69
2021/12/12 08:32:14;;;;;;;22.83;12.32;;;;;;;2.07;67.68;100773.59;10392514;28;20049;-68
2021/12/12 08:37:36;;;;;;;28.35;13.27;;;;;;;2.28;67.54;100765.56;10391059;28;20041;-68
2021/12/12 08:42:38;;;;;;;27.77;16.58;;;;;;;2.45;67.05;100760.19;10392218;28;20308;-69
2021/12/12 08:47:41;;;;;;;33.65;17.38;;;;;;;2.54;67.12;100755.72;10392033;28;20421;-69
2021/12/12 08:52:45;;;;;;;25.38;15.10;;;;;;;2.49;67.00;100757.53;10389690;28;20045;-69
2021/12/12 08:58:05;;;;;;;28.23;15.43;;;;;;;2.60;67.35;100755.66;10391191;28;20045;-69
2021/12/12 09:03:09;;;;;;;;;;;;;;;2.47;67.72;100748.09;10376940;28;20452;-69
2021/12/12 09:08:21;;;;;;;28.40;12.00;;;;;;;2.69;67.24;100755.53;10388804;28;19925;-69
2021/12/12 09:13:28;;;;;;;21.73;10.65;;;;;;;2.68;67.40;100758.13;10390521;28;20052;-73
2021/12/12 09:18:52;;;;;;;24.13;11.95;;;;;;;2.80;67.89;100763.13;10389737;28;20163;-73
2021/12/12 09:24:06;;;;;;;26.88;12.30;;;;;;;3.15;67.03;100763.44;10373927;28;20045;-73
2021/12/12 09:29:28;;;;;;;27.23;14.40;;;;;;;3.28;67.04;100751.13;10387014;28;20072;-73
2021/12/12 09:34:40;;;;;;;20.77;10.48;;;;;;;3.38;66.44;100757.84;10382123;28;20054;-74
2021/12/12 09:40:09;;;;;;;24.27;10.38;;;;;;;3.21;66.93;100744.38;10385823;28;20085;-74
2021/12/12 09:45:36;;;;;;;27.85;13.77;;;;;;;3.26;67.39;100738.25;10387999;28;20065;-74
2021/12/12 09:51:15;;;;;;;32.25;13.75;;;;;;;3.32;67.56;100738.13;10386270;28;20123;-74
2021/12/12 09:56:36;;;;;;;30.90;14.48;;;;;;;3.05;68.69;100743.75;10388619;28;20513;-74
2021/12/12 10:01:40;;;;;;;38.37;14.23;;;;;;;2.97;68.47;100733.56;10389048;28;20061;-73
2021/12/12 10:07:30;;;;;;;33.15;17.48;;;;;;;3.22;68.75;100728.81;10387137;28;20046;-74
2021/12/12 10:12:39;;;;;;;35.13;20.67;;;;;;;3.36;68.21;100733.75;10340750;28;20387;-73
2021/12/12 10:17:51;;;;;;;27.27;15.25;;;;;;;3.18;69.28;100723.72;10375178;28;20317;-74
2021/12/12 10:23:15;;;;;;;30.65;16.00;;;;;;;3.51;68.58;100715.38;10384525;28;20495;-73
2021/12/12 10:28:32;;;;;;;36.38;17.23;;;;;;;3.49;68.51;100725.75;10384263;28;20073;-73
2021/12/12 10:33:52;;;;;;;145.20;23.73;;;;;;;3.37;69.40;100730.31;10387244;28;20128;-73
2021/12/12 10:38:54;;;;;;;39.55;19.67;;;;;;;3.20;69.47;100738.34;10386384;28;20092;-74
2021/12/12 10:44:11;;;;;;;39.13;21.27;;;;;;;3.40;69.72;100731.09;10384341;28;20068;-73
2021/12/12 10:49:52;;;;;;;28.67;17.98;;;;;;;3.70;69.24;100730.50;10385475;28;20045;-73
2021/12/12 10:55:04;;;;;;;41.85;22.17;;;;;;;3.52;69.84;100740.34;10385404;28;20042;-73
2021/12/12 11:00:22;;;;;;;26.73;14.27;;;;;;;3.70;69.33;100734.84;10385500;28;20409;-73
2021/12/12 11:05:32;;;;;;;31.95;18.85;;;;;;;3.93;69.22;100721.47;10385981;28;20052;-73
2021/12/12 11:10:37;;;;;;;53.35;26.45;;;;;;;4.11;68.82;100715.94;10384239;28;20701;-72
2021/12/12 11:16:21;;;;;;;37.03;23.05;;;;;;;4.13;68.95;100706.41;10384216;28;20053;-72
2021/12/12 11:21:34;;;;;;;37.53;20.55;;;;;;;4.05;69.48;100716.09;10378765;28;20049;-72
2021/12/12 11:26:40;;;;;;;25.17;12.57;;;;;;;4.23;69.32;100705.34;10380648;28;20156;-73
2021/12/12 11:31:44;;;;;;;15.15;6.75;;;;;;;4.44;69.00;100702.25;10381556;28;20523;-73
2021/12/12 11:37:15;;;;;;;11.73;5.85;;;;;;;4.70;68.98;100700.75;10383248;28;20056;-73
2021/12/12 11:42:36;;;;;;;11.45;4.60;;;;;;;4.80;68.84;100697.97;10383456;28;20052;-72
2021/12/12 11:48:23;;;;;;;11.52;4.72;;;;;;;4.89;68.69;100697.72;10380760;28;20052;-73
2021/12/12 11:53:47;;;;;;;8.80;3.40;;;;;;;5.07;68.13;100705.06;10377071;28;20050;-71
2021/12/12 11:59:10;;;;;;;13.57;7.40;;;;;;;5.11;67.89;100709.28;10382695;28;20057;-71
2021/12/12 12:04:41;;;;;;;9.93;3.72;;;;;;;5.29;68.03;100707.06;10380012;28;20056;-71
2021/12/12 12:10:07;;;;;;;8.73;3.97;;;;;;;5.23;67.80;100699.44;10382486;28;20223;-71
2021/12/12 12:15:34;;;;;;;12.88;6.75;;;;;;;5.35;67.50;100693.09;10377519;28;20061;-71
2021/12/12 12:21:02;;;;;;;7.90;4.10;;;;;;;5.45;67.38;100704.94;10380555;28;20123;-72
2021/12/12 12:31:39;;;;;;;4.43;2.65;;;;;;;5.50;67.37;100697.88;10377692;28;20049;-72
2021/12/12 12:37:15;;;;;;;5.82;2.90;;;;;;;5.46;67.38;100691.91;10382115;28;20049;-72
2021/12/12 12:42:40;;;;;;;5.78;2.80;;;;;;;5.67;67.07;100687.91;10380507;28;20056;-71
2021/12/12 12:48:26;;;;;;;6.30;2.53;;;;;;;5.70;66.59;100695.56;10378075;28;20144;-73
2021/12/12 12:54:03;;;;;;;6.88;2.85;;;;;;;5.79;66.62;100691.88;10374413;28;20053;-72
2021/12/12 12:59:31;;;;;;;5.25;2.63;;;;;;;5.86;66.66;100694.25;10388870;28;20179;-73
2021/12/12 13:05:03;;;;;;;6.10;2.78;;;;;;;5.88;66.71;100695.06;10388535;28;20057;-73
2021/12/12 13:10:19;;;;;;;;;;;;;;;5.66;67.06;100699.16;10388698;28;20053;-72
2021/12/12 13:15:35;;;;;;;5.57;2.83;;;;;;;5.71;67.22;100691.25;10386771;28;19925;-73
2021/12/12 13:21:14;;;;;;;6.40;3.08;;;;;;;5.62;67.74;100681.97;10386512;28;20045;-73
2021/12/12 13:26:28;;;;;;;8.63;2.88;;;;;;;5.64;67.78;100677.59;10389894;28;20054;-73
2021/12/12 13:31:39;;;;;;;5.78;2.42;;;;;;;5.67;67.65;100687.91;10386656;28;20058;-72
2021/12/12 13:36:50;;;;;;;6.18;2.40;;;;;;;5.73;67.61;100689.47;10387805;28;20060;-73
2021/12/12 13:42:15;;;;;;;9.07;2.70;;;;;;;5.72;67.61;100692.94;10389323;28;20060;-73
2021/12/12 13:47:43;;;;;;;8.20;2.80;;;;;;;5.82;67.19;100689.22;10387899;28;20493;-73
2021/12/12 13:53:04;;;;;;;7.28;3.25;;;;;;;5.90;67.21;100695.03;10387558;28;20091;-73
2021/12/12 13:58:27;;;;;;;8.60;4.80;;;;;;;5.88;67.22;100691.63;10385654;28;20065;-72
2021/12/12 14:03:52;;;;;;;6.90;3.55;;;;;;;5.89;67.22;100696.78;10377906;28;20067;-73
2021/12/12 14:09:00;;;;;;;7.90;3.33;;;;;;;6.00;67.06;100686.09;10378793;28;20053;-72
2021/12/12 14:14:09;;;;;;;5.35;2.40;;;;;;;6.03;67.02;100683.38;10379871;28;20046;-73
2021/12/12 14:19:32;;;;;;;5.32;2.50;;;;;;;6.06;66.97;100676.34;10382542;28;20067;-73
2021/12/12 14:24:35;;;;;;;5.38;2.75;;;;;;;6.09;66.96;100678.00;10381050;28;20069;-73
2021/12/12 14:29:38;;;;;;;8.98;4.68;;;;;;;6.09;66.76;100684.06;10384998;28;20145;-73
2021/12/12 14:34:42;;;;;;;10.55;6.50;;;;;;;6.11;66.88;100690.06;10383680;28;20079;-73
2021/12/12 14:39:44;;;;;;;5.93;3.20;;;;;;;6.12;66.79;100693.50;10383116;28;20053;-72
2021/12/12 14:44:52;;;;;;;6.55;3.85;;;;;;;6.17;66.87;100689.88;10386298;28;20049;-73
2021/12/12 14:50:08;;;;;;;7.22;3.03;;;;;;;6.22;66.75;100698.41;10376298;28;20057;-73
2021/12/12 14:55:20;;;;;;;7.00;3.35;;;;;;;6.11;66.87;100699.59;10377675;28;20589;-74
2021/12/12 15:00:27;;;;;;;5.65;3.53;;;;;;;6.20;66.90;100692.41;10385074;28;20046;-72
2021/12/12 15:05:32;;;;;;;5.10;3.03;;;;;;;6.22;67.01;100706.19;10383030;28;20531;-72
2021/12/12 15:10:43;;;;;;;6.30;3.03;;;;;;;6.15;67.10;100707.25;10386404;28;20597;-73
2021/12/12 15:15:58;;;;;;;7.38;3.22;;;;;;;6.11;67.25;100709.97;10383947;28;20346;-73
2021/12/12 15:21:07;;;;;;;5.55;3.10;;;;;;;6.17;67.11;100708.06;10386146;28;20061;-73
2021/12/12 15:26:22;;;;;;;8.00;2.90;;;;;;;6.17;67.30;100709.78;10384271;28;20063;-73
2021/12/12 15:31:35;;;;;;;5.72;3.15;;;;;;;6.11;67.65;100703.03;10384067;28;20308;-72
2021/12/12 15:36:42;;;;;;;6.63;3.67;;;;;;;6.08;67.56;100713.50;10385383;28;20053;-74
2021/12/12 15:41:44;;;;;;;8.98;3.72;;;;;;;6.08;67.58;100726.50;10383444;28;20053;-74
2021/12/12 15:46:49;;;;;;;6.53;3.65;;;;;;;5.99;68.08;100739.75;10383837;28;20049;-72
2021/12/12 15:52:00;;;;;;;8.57;3.60;;;;;;;6.04;68.25;100740.47;10385990;28;20417;-68
2021/12/12 15:57:09;;;;;;;10.75;4.97;;;;;;;6.03;68.37;100745.69;10384264;28;20623;-68
2021/12/12 16:02:24;;;;;;;5.97;3.95;;;;;;;6.06;68.34;100746.47;10385231;28;20053;-68
2021/12/12 16:07:41;;;;;;;7.97;4.03;;;;;;;6.13;68.10;100748.00;10383481;28;20293;-66
2021/12/12 16:12:47;;;;;;;7.47;3.10;;;;;;;6.16;68.08;100752.25;10383389;28;20049;-66
2021/12/12 16:17:55;;;;;;;8.45;3.65;;;;;;;6.18;68.23;100750.47;10382404;28;20554;-66
2021/12/12 16:23:00;;;;;;;8.55;3.92;;;;;;;6.19;67.97;100753.00;10384093;28;20053;-66
2021/12/12 16:28:07;;;;;;;7.40;4.00;;;;;;;6.12;68.30;100754.06;10388206;28;20052;-68
2021/12/12 16:33:13;;;;;;;9.75;4.30;;;;;;;6.15;68.42;100761.78;10392095;28;20461;-68
2021/12/12 16:38:21;;;;;;;7.97;4.70;;;;;;;6.01;68.90;100756.13;10391645;28;20049;-68
2021/12/12 16:43:26;;;;;;;7.93;4.60;;;;;;;6.09;68.65;100755.91;10391340;28;20757;-68
2021/12/12 16:48:39;;;;;;;8.05;4.80;;;;;;;6.02;69.14;100769.97;10389042;28;20068;-68
2021/12/12 16:53:42;;;;;;;8.45;4.65;;;;;;;6.02;69.13;100770.81;10388743;28;20065;-68
2021/12/12 16:58:47;;;;;;;8.45;4.95;;;;;;;6.01;69.24;100769.13;10391744;28;20667;-67
2021/12/12 17:04:18;;;;;;;12.30;5.65;;;;;;;5.94;69.70;100774.53;10379171;28;20067;-67
2021/12/12 17:09:29;;;;;;;9.55;5.22;;;;;;;5.94;69.66;100774.53;10382885;28;20061;-68
2021/12/12 17:15:11;;;;;;;10.50;5.82;;;;;;;5.98;69.84;100784.75;10388561;28;20189;-67
2021/12/12 17:20:23;;;;;;;8.65;4.57;;;;;;;5.95;69.89;100786.59;10376463;28;20049;-66
2021/12/12 17:25:27;;;;;;;9.23;4.90;;;;;;;5.96;70.02;100786.56;10386198;28;20056;-67
2021/12/12 17:30:31;;;;;;;8.32;5.72;;;;;;;5.99;69.77;100781.28;10388526;28;20084;-67
2021/12/12 17:35:39;;;;;;;6.93;5.32;;;;;;;5.83;70.46;100787.78;10388869;28;20421;-67
2021/12/12 17:40:53;;;;;;;6.75;4.50;;;;;;;5.82;70.70;100793.88;10386058;28;20045;-67
2021/12/12 17:46:07;;;;;;;6.85;4.63;;;;;;;5.91;70.54;100797.97;10385994;28;20441;-67
2021/12/12 17:51:21;;;;;;;5.97;3.72;;;;;;;5.86;70.66;100802.44;10387871;28;20234;-67
2021/12/12 17:56:34;;;;;;;5.10;3.30;;;;;;;5.80;71.03;100808.63;10381602;28;20489;-67
2021/12/12 18:01:44;;;;;;;5.63;4.00;;;;;;;5.84;70.94;100807.66;10387891;28;20136;-67
2021/12/12 18:06:53;;;;;;;6.07;3.47;;;;;;;5.91;70.61;100806.63;10387067;28;20132;-67
2021/12/12 18:12:01;;;;;;;6.78;4.05;;;;;;;5.97;70.51;100813.38;10386676;28;20497;-67
2021/12/12 18:17:27;;;;;;;4.68;3.20;;;;;;;5.83;70.91;100815.50;10377008;28;20434;-67
2021/12/12 18:22:33;;;;;;;6.30;3.40;;;;;;;5.78;71.27;100817.38;10376842;28;20258;-67
2021/12/12 18:27:44;;;;;;;6.15;3.15;;;;;;;5.75;71.38;100815.69;10378157;28;20053;-67
2021/12/12 18:32:48;;;;;;;6.25;3.42;;;;;;;5.85;71.00;100816.31;10384310;28;20480;-67
2021/12/12 18:38:03;;;;;;;7.82;4.38;;;;;;;5.84;71.34;100823.22;10380229;28;20038;-68
2021/12/12 18:43:08;;;;;;;5.30;3.70;;;;;;;5.85;71.14;100818.91;10385973;28;20053;-68
2021/12/12 18:48:16;;;;;;;9.95;4.65;;;;;;;5.84;71.25;100825.00;10384408;28;20049;-68
2021/12/12 18:53:35;;;;;;;5.43;3.17;;;;;;;5.88;71.33;100830.03;10387247;28;20494;-68
2021/12/12 18:58:47;;;;;;;5.72;3.40;;;;;;;5.88;71.41;100830.03;10385043;28;20136;-68
2021/12/12 19:03:57;;;;;;;5.35;3.30;;;;;;;5.96;71.22;100832.47;10385898;28;20061;-68
2021/12/12 19:08:59;;;;;;;5.18;3.03;;;;;;;6.01;70.99;100846.16;10385230;28;20045;-68
2021/12/12 19:14:08;;;;;;;4.70;3.20;;;;;;;5.98;71.18;100836.69;10383088;28;20049;-68
2021/12/12 19:19:11;;;;;;;4.18;3.03;;;;;;;5.88;71.44;100826.63;10384643;28;20065;-68
2021/12/12 19:24:17;;;;;;;5.50;3.05;;;;;;;5.96;71.25;100838.47;10381331;28;20054;-68
2021/12/12 19:29:27;;;;;;;6.18;3.17;;;;;;;5.93;71.40;100833.38;10384020;28;20045;-68
2021/12/12 19:34:33;;;;;;;4.53;3.40;;;;;;;5.95;71.36;100835.94;10384040;28;20053;-68
2021/12/12 19:39:53;;;;;;;4.45;3.10;;;;;;;5.95;71.51;100847.19;10384030;28;20056;-68
2021/12/12 19:45:19;;;;;;;4.68;3.20;;;;;;;5.94;71.70;100844.63;10384172;28;20532;-68
2021/12/12 19:50:33;;;;;;;6.57;3.30;;;;;;;5.96;71.72;100838.47;10383456;28;20953;-68
2021/12/12 19:55:44;;;;;;;5.57;2.97;;;;;;;6.03;71.33;100854.75;10378851;28;20053;-68
2021/12/12 20:00:50;;;;;;;;;;;;;;;5.85;72.01;100855.25;10382273;28;20532;-69
2021/12/12 20:05:57;;;;;;;5.65;3.70;;;;;;;6.17;71.01;100850.03;10382981;28;19978;-68
2021/12/12 20:11:12;;;;;;;6.07;3.70;;;;;;;6.19;71.18;100861.25;10377360;28;20102;-68
2021/12/12 20:16:58;;;;;;;5.57;3.95;;;;;;;6.39;70.60;100855.56;10381776;28;20530;-69
2021/12/12 20:22:08;;;;;;;5.85;3.97;;;;;;;6.44;70.50;100856.25;10353047;28;20300;-69
2021/12/12 20:27:14;;;;;;;5.63;4.00;;;;;;;6.41;70.52;100853.75;10380233;28;20176;-68
2021/12/12 20:32:23;;;;;;;5.85;3.53;;;;;;;6.30;70.78;100859.25;10380227;28;20050;-68
2021/12/12 20:37:26;;;;;;;6.15;3.90;;;;;;;6.30;70.89;100862.72;10381682;28;20489;-69
2021/12/12 20:42:33;;;;;;;6.07;3.78;;;;;;;6.26;71.25;100865.44;10380460;28;20116;-68
2021/12/12 20:47:43;;;;;;;5.85;4.00;;;;;;;6.39;70.78;100873.75;10381019;28;20053;-69
2021/12/12 20:53:07;;;;;;;5.55;3.95;;;;;;;6.39;70.59;100858.97;10381522;28;20052;-68
2021/12/12 20:58:20;;;;;;;6.35;4.15;;;;;;;6.40;70.75;100875.44;10378768;28;20072;-68
2021/12/12 21:03:30;;;;;;;6.97;4.85;;;;;;;6.29;71.09;100862.72;10381045;28;20494;-68
2021/12/12 21:08:41;;;;;;;6.55;4.45;;;;;;;6.21;71.16;100865.50;10379926;28;20104;-68
2021/12/12 21:13:53;;;;;;;6.32;4.43;;;;;;;6.15;71.42;100865.69;10386009;28;20060;-68
2021/12/12 21:19:04;;;;;;;6.10;5.03;;;;;;;6.23;71.12;100863.72;10388857;28;20056;-67
2021/12/12 21:24:15;;;;;;;6.33;4.77;;;;;;;6.29;71.08;100871.38;10390212;28;20049;-68
2021/12/12 21:29:19;;;;;;;7.97;4.93;;;;;;;6.38;71.02;100859.03;10388936;28;20472;-68
2021/12/12 21:34:28;;;;;;;9.02;5.88;;;;;;;6.44;70.97;100861.44;10386843;28;20049;-68
2021/12/12 21:39:36;;;;;;;8.35;5.53;;;;;;;6.49;70.76;100870.81;10389598;28;20083;-68
2021/12/12 21:44:46;;;;;;;8.23;5.57;;;;;;;6.53;70.60;100867.22;10388511;28;20057;-68
2021/12/12 21:49:57;;;;;;;7.60;5.72;;;;;;;6.50;70.62;100871.69;10388581;28;20319;-68
2021/12/12 21:54:59;;;;;;;8.50;6.50;;;;;;;6.46;70.57;100872.66;10388139;28;20745;-67
2021/12/12 22:00:29;;;;;;;7.28;4.85;;;;;;;6.47;70.51;100872.59;10387678;28;20050;-67
2021/12/12 22:05:42;;;;;;;6.97;5.10;;;;;;;6.49;70.41;100880.38;10385236;28;20140;-67
2021/12/12 22:10:55;;;;;;;7.10;4.68;;;;;;;6.45;70.51;100889.16;10387954;28;20307;-67
2021/12/12 22:16:02;;;;;;;8.30;6.78;;;;;;;6.58;70.58;100900.91;10387400;28;20492;-67
2021/12/12 22:21:08;;;;;;;10.73;7.32;;;;;;;6.65;70.34;100892.91;10387780;28;20071;-67
2021/12/12 22:26:10;;;;;;;6.28;3.90;;;;;;;6.69;70.24;100888.47;10386385;28;20537;-67
2021/12/12 22:31:22;;;;;;;5.25;4.30;;;;;;;6.76;70.13;100892.56;10384847;28;20057;-67
2021/12/12 22:36:30;;;;;;;6.07;4.43;;;;;;;6.83;70.04;100894.13;10386411;28;20493;-67
2021/12/12 22:41:37;;;;;;;7.60;4.35;;;;;;;6.86;69.80;100897.47;10385700;28;20050;-67
2021/12/12 22:46:45;;;;;;;6.20;4.97;;;;;;;6.92;69.69;100897.28;10387023;28;20123;-67
2021/12/12 22:51:54;;;;;;;5.38;4.53;;;;;;;6.91;69.70;100894.75;10385164;28;20075;-67
2021/12/12 22:57:04;;;;;;;6.93;4.38;;;;;;;6.89;69.78;100896.53;10385416;28;20072;-67
2021/12/12 23:02:10;;;;;;;5.75;4.65;;;;;;;6.91;69.74;100895.59;10385588;28;20393;-67
2021/12/12 23:07:12;;;;;;;8.00;4.90;;;;;;;6.97;69.49;100900.63;10384304;28;20066;-68
2021/12/12 23:12:17;;;;;;;5.65;4.80;;;;;;;7.00;69.44;100894.44;10384846;28;20045;-67
2021/12/12 23:17:27;;;;;;;7.20;4.50;;;;;;;7.06;69.23;100907.31;10385497;28;20057;-67
2021/12/12 23:22:37;;;;;;;6.18;4.90;;;;;;;7.11;69.16;100905.41;10384795;28;20059;-67
2021/12/12 23:32:51;;;;;;;7.97;5.00;;;;;;;7.15;68.96;100902.66;10384457;28;20037;-67
2021/12/12 23:38:00;;;;;;;8.20;4.75;;;;;;;7.21;68.94;100906.81;10384887;28;20128;-67
2021/12/12 23:43:17;;;;;;;5.95;4.72;;;;;;;7.13;68.89;100911.41;10384147;28;20596;-68
2021/12/12 23:48:27;;;;;;;6.35;4.53;;;;;;;6.95;69.65;100917.16;10384907;28;20860;-67
2021/12/12 23:53:34;;;;;;;7.40;5.63;;;;;;;6.92;69.91;100909.44;10383137;28;20049;-67
2021/12/12 23:58:40;;;;;;;6.45;5.43;;;;;;;7.02;69.46;100909.13;10384681;28;20056;-67
